createdAt,value
2023-01-04T00:00:23.374Z,3.33
2023-01-04T00:05:47.658Z,3.00
2023-01-04T00:10:51.964Z,3.70
2023-01-04T00:16:02.495Z,3.66
2023-01-04T00:21:13.582Z,3.87
2023-01-04T00:26:20.283Z,3.25
2023-01-04T00:31:27.241Z,3.10
2023-01-04T00:36:33.231Z,2.93
2023-01-04T00:47:06.302Z,2.59
2023-01-04T00:52:11.104Z,2.58
2023-01-04T00:57:15.713Z,2.29
2023-01-04T01:02:21.615Z,2.35
2023-01-04T01:07:26.072Z,2.30
2023-01-04T01:12:30.904Z,3.38
2023-01-04T01:17:37.491Z,2.99
2023-01-04T01:22:42.193Z,3.53
2023-01-04T01:27:46.505Z,3.83
2023-01-04T01:32:52.249Z,3.56
2023-01-04T01:37:56.659Z,2.93
2023-01-04T01:43:01.171Z,2.61
2023-01-04T01:48:13.765Z,2.49
2023-01-04T01:53:18.399Z,2.96
2023-01-04T01:58:28.101Z,2.84
2023-01-04T02:03:37.652Z,2.94
2023-01-04T02:08:44.318Z,2.75
2023-01-04T02:14:06.617Z,1.75
2023-01-04T02:19:32.265Z,1.63
2023-01-04T02:24:56.082Z,1.80
2023-01-04T02:31:01.021Z,2.13
2023-01-04T02:36:17.538Z,3.08
2023-01-04T02:41:29.292Z,2.17
2023-01-04T02:46:37.177Z,1.91
2023-01-04T02:51:42.955Z,1.83
2023-01-04T02:56:58.343Z,3.02
2023-01-04T03:02:39.631Z,2.89
2023-01-04T03:07:52.946Z,1.98
2023-01-04T03:13:12.875Z,1.85
2023-01-04T03:18:22.373Z,0.28
2023-01-04T03:23:49.471Z,-0.17
2023-01-04T03:29:12.559Z,0.31
2023-01-04T03:34:34.306Z,0.17
2023-01-04T03:40:13.015Z,1.94
2023-01-04T03:45:38.416Z,1.93
2023-01-04T03:50:46.934Z,1.17
2023-01-04T03:55:54.220Z,1.49
2023-01-04T04:01:03.570Z,1.76
2023-01-04T04:06:27.855Z,1.84
2023-01-04T04:11:33.835Z,1.27
2023-01-04T04:16:38.748Z,0.44
2023-01-04T04:21:43.141Z,1.18
2023-01-04T04:26:49.127Z,0.94
2023-01-04T04:31:53.707Z,0.85
2023-01-04T04:36:58.067Z,1.59
2023-01-04T04:42:03.939Z,1.93
2023-01-04T04:47:08.437Z,1.77
2023-01-04T04:52:12.763Z,1.80
2023-01-04T04:57:18.546Z,2.19
2023-01-04T05:02:22.853Z,2.51
2023-01-04T05:07:27.627Z,3.14
2023-01-04T05:12:57.481Z,2.85
2023-01-04T05:18:02.388Z,2.94
2023-01-04T05:23:07.543Z,1.94
2023-01-04T05:28:13.244Z,1.84
2023-01-04T05:33:18.152Z,1.79
2023-01-04T05:38:23.905Z,1.99
2023-01-04T05:43:29.336Z,1.80
2023-01-04T05:48:33.749Z,1.18
2023-01-04T05:53:38.105Z,1.55
2023-01-04T05:58:43.864Z,0.73
2023-01-04T06:03:48.176Z,1.37
2023-01-04T06:08:52.586Z,1.51
2023-01-04T06:13:58.415Z,0.33
2023-01-04T06:19:03.406Z,0.82
2023-01-04T06:24:08.189Z,0.34
2023-01-04T06:29:14.311Z,1.17
2023-01-04T06:34:24.038Z,1.35
2023-01-04T06:39:32.256Z,1.18
2023-01-04T06:44:38.214Z,0.84
2023-01-04T06:49:42.589Z,0.28
2023-01-04T06:54:47.010Z,1.21
2023-01-04T06:59:53.740Z,1.81
2023-01-04T07:04:58.152Z,2.44
2023-01-04T07:10:09.313Z,2.54
2023-01-04T07:15:39.595Z,1.85
2023-01-04T07:20:40.594Z,2.25
2023-01-04T07:25:45.029Z,1.99
2023-01-04T07:30:51.081Z,2.07
2023-01-04T07:35:55.661Z,2.66
2023-01-04T07:40:59.939Z,3.19
2023-01-04T07:46:06.155Z,2.84
2023-01-04T07:51:10.887Z,3.06
2023-01-04T07:56:18.765Z,3.78
2023-01-04T08:01:25.939Z,3.91
2023-01-04T08:06:30.522Z,4.46
2023-01-04T08:11:37.060Z,4.70
2023-01-04T08:16:44.844Z,4.89
2023-01-04T08:21:50.227Z,4.83
2023-01-04T08:26:54.739Z,3.80
2023-01-04T08:32:00.770Z,4.29
2023-01-04T08:37:05.321Z,4.32
2023-01-04T08:42:22.117Z,4.82
2023-01-04T08:47:32.196Z,4.99
2023-01-04T08:52:37.118Z,5.56
2023-01-04T08:57:41.841Z,5.23
2023-01-04T09:02:48.132Z,5.44
2023-01-04T09:07:53.127Z,5.95
2023-01-04T09:12:58.391Z,5.98
2023-01-04T09:18:30.728Z,5.92
2023-01-04T09:23:30.512Z,6.58
2023-01-04T09:28:35.044Z,6.78
2023-01-04T09:34:12.786Z,7.30
2023-01-04T09:39:05.765Z,7.23
2023-01-04T09:44:19.392Z,5.70
2023-01-04T09:49:29.988Z,6.41
2023-01-04T09:54:41.258Z,5.35
2023-01-04T09:59:46.545Z,6.98
2023-01-04T10:04:53.636Z,6.98
2023-01-04T10:09:59.594Z,7.42
2023-01-04T10:15:15.294Z,6.99
2023-01-04T10:26:16.428Z,7.03
2023-01-04T10:31:40.467Z,7.62
2023-01-04T10:36:48.931Z,8.15
2023-01-04T10:41:57.767Z,8.63
2023-01-04T10:47:09.995Z,7.64
2023-01-04T10:52:21.971Z,7.63
2023-01-04T10:57:33.267Z,8.16
2023-01-04T11:02:44.371Z,7.99
2023-01-04T11:07:55.247Z,7.74
2023-01-04T11:12:59.684Z,7.90
2023-01-04T11:18:07.997Z,7.78
2023-01-04T11:23:16.748Z,7.89
2023-01-04T11:28:26.180Z,7.92
2023-01-04T11:33:30.777Z,8.77
2023-01-04T11:38:36.734Z,8.59
2023-01-04T11:43:41.049Z,8.71
2023-01-04T11:48:48.034Z,9.32
2023-01-04T11:54:05.254Z,9.87
2023-01-04T11:59:24.948Z,10.09
2023-01-04T12:04:35.238Z,10.19
2023-01-04T12:09:41.719Z,9.72
2023-01-04T12:14:48.468Z,10.67
2023-01-04T12:19:55.347Z,10.20
2023-01-04T12:25:02.844Z,11.08
2023-01-04T12:30:09.026Z,11.17
2023-01-04T12:35:32.097Z,10.65
2023-01-04T12:40:57.340Z,11.73
2023-01-04T12:47:01.489Z,11.68
2023-01-04T12:53:02.289Z,11.74
2023-01-04T12:59:15.228Z,11.60
2023-01-04T13:04:29.964Z,11.40
2023-01-04T13:09:34.881Z,11.24
2023-01-04T13:14:44.948Z,11.59
2023-01-04T13:19:50.737Z,12.42
2023-01-04T13:24:57.788Z,12.69
2023-01-04T13:30:04.602Z,12.34
2023-01-04T13:35:14.771Z,11.17
2023-01-04T13:40:26.016Z,10.72
2023-01-04T13:45:54.356Z,10.58
2023-01-04T13:51:03.769Z,10.22
2023-01-04T13:56:18.528Z,9.16
2023-01-04T14:01:27.812Z,8.93
2023-01-04T14:06:35.779Z,8.42
2023-01-04T14:12:06.828Z,7.86
2023-01-04T14:17:19.961Z,7.87
2023-01-04T14:22:39.368Z,7.26
2023-01-04T14:27:44.378Z,7.85
2023-01-04T14:32:56.968Z,7.56
2023-01-04T14:38:06.151Z,6.80
2023-01-04T14:43:34.146Z,7.03
2023-01-04T14:48:40.305Z,7.05
2023-01-04T14:53:44.965Z,6.70
2023-01-04T14:58:49.400Z,7.30
2023-01-04T15:03:55.422Z,6.83
2023-01-04T15:09:00.015Z,6.47
2023-01-04T15:14:04.570Z,6.11
2023-01-04T15:19:10.287Z,6.44
2023-01-04T15:24:14.600Z,6.35
2023-01-04T15:29:19.069Z,6.86
2023-01-04T15:34:24.919Z,7.14
2023-01-04T15:39:29.306Z,6.50
2023-01-04T15:44:33.810Z,6.50
2023-01-04T15:49:39.591Z,6.66
2023-01-04T15:54:43.656Z,6.40
2023-01-04T15:59:48.948Z,6.39
2023-01-04T16:04:54.798Z,6.53
2023-01-04T16:09:59.186Z,6.74
2023-01-04T16:15:03.631Z,6.71
2023-01-04T16:20:10.990Z,6.58
2023-01-04T16:25:15.721Z,6.65
2023-01-04T16:30:25.870Z,6.57
2023-01-04T16:35:35.349Z,7.06
2023-01-04T16:40:39.964Z,6.44
2023-01-04T16:45:44.492Z,6.49
2023-01-04T16:50:50.457Z,6.54
2023-01-04T16:55:54.783Z,6.51
2023-01-04T17:01:07.778Z,6.50
2023-01-04T17:06:16.543Z,6.70
2023-01-04T17:16:47.943Z,6.62
2023-01-04T17:21:56.810Z,7.16
2023-01-04T17:27:01.299Z,7.12
2023-01-04T17:32:05.959Z,6.84
2023-01-04T17:37:11.731Z,6.76
2023-01-04T17:42:16.005Z,7.12
2023-01-04T17:47:20.570Z,6.68
2023-01-04T17:52:31.165Z,6.82
2023-01-04T17:57:36.001Z,6.57
2023-01-04T18:02:40.547Z,6.75
2023-01-04T18:07:46.477Z,6.67
2023-01-04T18:12:51.195Z,6.69
2023-01-04T18:17:55.573Z,6.26
2023-01-04T18:23:01.608Z,6.22
2023-01-04T18:28:05.721Z,6.15
2023-01-04T18:33:10.002Z,6.11
2023-01-04T18:38:15.759Z,6.45
2023-01-04T18:43:20.045Z,6.49
2023-01-04T18:48:24.327Z,6.33
2023-01-04T18:53:30.135Z,6.06
2023-01-04T18:58:35.837Z,6.33
2023-01-04T19:03:41.896Z,6.09
2023-01-04T19:08:53.385Z,5.93
2023-01-04T19:14:00.849Z,6.20
2023-01-04T19:19:05.374Z,6.68
2023-01-04T19:24:11.219Z,6.16
2023-01-04T19:29:15.233Z,6.08
2023-01-04T19:34:19.533Z,6.19
2023-01-04T19:39:25.384Z,6.20
2023-01-04T19:44:29.738Z,6.25
2023-01-04T19:49:34.235Z,5.90
2023-01-04T19:54:39.932Z,6.08
2023-01-04T19:59:43.980Z,6.22
2023-01-04T20:04:48.423Z,6.26
2023-01-04T20:09:54.249Z,6.08
2023-01-04T20:14:58.501Z,6.52
2023-01-04T20:20:02.763Z,6.75
2023-01-04T20:25:09.388Z,6.92
2023-01-04T20:30:14.182Z,6.28
2023-01-04T20:35:20.094Z,6.37
2023-01-04T20:40:26.616Z,6.15
2023-01-04T20:45:30.908Z,6.28
2023-01-04T20:50:35.742Z,6.15
2023-01-04T20:55:42.550Z,6.21
2023-01-04T21:00:47.898Z,6.16
2023-01-04T21:05:52.199Z,6.60
2023-01-04T21:10:58.470Z,6.34
2023-01-04T21:16:03.635Z,6.04
2023-01-04T21:21:08.910Z,5.96
2023-01-04T21:26:16.098Z,6.35
2023-01-04T21:31:24.244Z,5.96
2023-01-04T21:36:29.683Z,6.55
2023-01-04T21:41:35.646Z,6.81
2023-01-04T21:46:39.842Z,6.94
2023-01-04T21:51:44.685Z,6.12
2023-01-04T21:56:50.691Z,5.88
2023-01-04T22:01:54.759Z,5.68
2023-01-04T22:06:59.228Z,5.60
2023-01-04T22:12:05.701Z,5.76
2023-01-04T22:17:10.068Z,5.77
2023-01-04T22:22:14.413Z,6.02
2023-01-04T22:27:20.228Z,6.35
2023-01-04T22:32:24.232Z,5.95
2023-01-04T22:37:28.478Z,6.17
2023-01-04T22:42:34.194Z,6.28
2023-01-04T22:47:38.336Z,6.59
2023-01-04T22:52:47.330Z,6.52
2023-01-04T22:57:56.470Z,6.56
2023-01-04T23:03:02.533Z,6.61
2023-01-04T23:08:07.278Z,6.94
2023-01-04T23:13:13.040Z,6.91
2023-01-04T23:18:17.383Z,7.02
2023-01-04T23:23:21.769Z,6.51
2023-01-04T23:28:27.488Z,6.15
2023-01-04T23:33:35.897Z,5.56
2023-01-04T23:38:41.942Z,5.83
2023-01-04T23:43:47.706Z,6.28
2023-01-04T23:48:52.027Z,6.28
2023-01-04T23:53:56.300Z,6.29
2023-01-04T23:59:02.456Z,6.07
